Time;durP1;ratioP1;P1;durP2;ratioP2;P2;SDS_P1;SDS_P2;PMS_P1;PMS_P2;Temp;Humidity;BMP_temperature;BMP_pressure;BME280_temperature;BME280_humidity;BME280_pressure;Samples;Min_cycle;Max_cycle;Signal;HPM_P1;HPM_P2
2024/04/12 00:01:04;;;;;;;7.10;4.43;;;9.60;99.90;;;;;;5343302;26;20531;-70
2024/04/12 00:03:31;;;;;;;6.90;4.10;;;9.70;99.90;;;;;;5343046;26;20585;-70
2024/04/12 00:06:00;;;;;;;5.43;4.10;;;9.60;99.90;;;;;;5329537;26;20583;-71
2024/04/12 00:08:28;;;;;;;5.13;4.20;;;9.60;99.90;;;;;;5317776;26;20502;-71
2024/04/12 00:10:56;;;;;;;5.00;4.50;;;9.50;99.90;;;;;;5342636;26;20883;-71
2024/04/12 00:13:26;;;;;;;5.57;4.10;;;9.50;99.90;;;;;;5342599;26;20456;-70
2024/04/12 00:15:55;;;;;;;6.00;3.97;;;9.50;99.90;;;;;;5315833;26;20469;-70
2024/04/12 00:18:25;;;;;;;7.13;4.80;;;9.60;99.90;;;;;;5310043;26;20512;-71
2024/04/12 00:20:53;;;;;;;7.20;4.40;;;9.60;99.90;;;;;;5323152;26;20500;-69
2024/04/12 00:23:19;;;;;;;4.87;3.63;;;9.60;99.90;;;;;;5333702;26;20508;-71
2024/04/12 00:25:46;;;;;;;5.50;3.77;;;9.60;99.90;;;;;;5367535;26;20823;-71
2024/04/12 00:28:14;;;;;;;4.53;4.10;;;9.50;99.90;;;;;;5331933;26;20455;-71
2024/04/12 00:30:41;;;;;;;6.03;4.07;;;9.50;99.90;;;;;;5320383;26;20465;-71
2024/04/12 00:33:10;;;;;;;6.40;4.40;;;9.40;99.90;;;;;;5323794;26;20516;-69
2024/04/12 00:35:37;;;;;;;14.10;4.97;;;9.40;99.90;;;;;;5322599;26;20878;-70
2024/04/12 00:38:03;;;;;;;7.83;4.23;;;9.40;99.90;;;;;;5333383;26;20455;-71
2024/04/12 00:40:35;;;;;;;4.37;3.90;;;9.40;99.90;;;;;;5343657;26;20455;-70
2024/04/12 00:43:11;;;;;;;6.53;4.93;;;9.40;99.90;;;;;;5343572;26;20467;-71
2024/04/12 00:45:48;;;;;;;8.90;3.90;;;9.30;99.90;;;;;;5328722;26;20484;-71
2024/04/12 00:48:15;;;;;;;5.43;3.80;;;9.30;99.90;;;;;;5312275;26;20865;-70
2024/04/12 00:50:46;;;;;;;6.67;3.80;;;9.20;99.90;;;;;;5324979;26;20523;-71
2024/04/12 00:53:28;;;;;;;4.30;3.53;;;9.10;99.90;;;;;;5333395;26;20463;-71
2024/04/12 00:56:00;;;;;;;7.03;4.10;;;9.10;99.90;;;;;;5327489;26;20512;-70
2024/04/12 00:58:32;;;;;;;6.43;4.93;;;9.10;99.90;;;;;;5323325;26;20519;-71
2024/04/12 01:01:11;;;;;;;6.20;3.40;;;9.00;99.90;;;;;;5334427;26;20960;-71
2024/04/12 01:03:47;;;;;;;6.60;3.67;;;9.00;99.90;;;;;;5342819;26;20522;-71
2024/04/12 01:06:16;;;;;;;7.70;3.50;;;9.00;99.90;;;;;;5318991;26;20449;-67
2024/04/12 01:08:45;;;;;;;13.73;3.87;;;9.00;99.90;;;;;;5343033;26;20856;-71
2024/04/12 01:11:13;;;;;;;21.57;4.50;;;9.10;99.90;;;;;;5325259;26;20576;-71
2024/04/12 01:13:40;;;;;;;5.37;4.00;;;9.10;99.90;;;;;;5309988;27;20512;-71
2024/04/12 01:16:06;;;;;;;6.77;4.40;;;9.10;99.90;;;;;;5317605;26;20461;-71
2024/04/12 01:18:35;;;;;;;6.63;3.90;;;9.10;99.90;;;;;;5330562;26;20467;-71
2024/04/12 01:21:01;;;;;;;4.17;3.37;;;9.10;99.90;;;;;;5334263;26;20558;-71
2024/04/12 01:23:27;;;;;;;5.23;3.40;;;9.00;99.90;;;;;;5312084;26;20998;-71
2024/04/12 01:25:56;;;;;;;4.33;3.30;;;9.00;99.90;;;;;;5328446;26;20455;-71
2024/04/12 01:28:22;;;;;;;6.63;3.30;;;9.00;99.90;;;;;;5311381;26;20453;-69
2024/04/12 01:30:47;;;;;;;5.50;3.37;;;8.90;99.90;;;;;;5341205;26;20538;-71
2024/04/12 01:33:13;;;;;;;4.53;3.80;;;8.90;99.90;;;;;;5312259;26;20459;-70
2024/04/12 01:35:42;;;;;;;6.83;3.50;;;8.90;99.90;;;;;;5340398;26;20225;-71
2024/04/12 01:38:19;;;;;;;6.03;4.40;;;8.90;99.90;;;;;;5323665;26;20269;-70
2024/04/12 01:40:57;;;;;;;6.03;3.87;;;8.80;99.90;;;;;;5314501;26;20509;-69
2024/04/12 01:43:26;;;;;;;6.90;3.53;;;8.80;99.90;;;;;;5340955;26;20476;-71
2024/04/12 01:45:54;;;;;;;5.73;4.00;;;8.90;99.90;;;;;;5340888;26;20582;-71
2024/04/12 01:48:24;;;;;;;6.80;4.43;;;8.80;99.90;;;;;;5328301;26;20457;-71
2024/04/12 01:50:53;;;;;;;5.27;3.83;;;8.80;99.90;;;;;;5331462;26;20519;-71
2024/04/12 01:53:21;;;;;;;6.80;3.23;;;8.80;99.90;;;;;;5367735;22;20499;-69
2024/04/12 01:55:50;;;;;;;4.63;4.23;;;8.80;99.90;;;;;;5360904;26;20463;-69
2024/04/12 01:58:20;;;;;;;7.20;3.37;;;8.70;99.90;;;;;;5344681;26;20523;-69
2024/04/12 02:00:46;;;;;;;6.93;4.27;;;8.70;99.90;;;;;;5346836;26;20455;-69
2024/04/12 02:03:13;;;;;;;6.57;3.80;;;8.60;99.90;;;;;;5344706;26;20456;-69
2024/04/12 02:05:39;;;;;;;6.80;4.50;;;8.50;99.90;;;;;;5322866;26;20524;-69
2024/04/12 02:08:40;;;;;;;8.93;4.70;;;8.50;99.90;;;;;;5316988;26;20469;-69
2024/04/12 02:11:05;;;;;;;10.37;3.97;;;8.40;99.90;;;;;;5315036;26;20525;-69
2024/04/12 02:13:37;;;;;;;4.60;3.60;;;8.40;99.90;;;;;;5327210;26;20467;-69
2024/04/12 02:16:06;;;;;;;6.60;3.43;;;8.40;99.90;;;;;;5314483;26;20499;-69
2024/04/12 02:18:33;;;;;;;7.10;3.37;;;8.30;99.90;;;;;;5340579;26;20882;-69
2024/04/12 02:21:05;;;;;;;3.80;3.50;;;8.30;99.90;;;;;;5363770;26;20928;-69
2024/04/12 02:23:37;;;;;;;4.30;3.50;;;8.40;99.90;;;;;;5330639;26;20465;-69
2024/04/12 02:26:04;;;;;;;5.37;3.83;;;8.30;99.90;;;;;;5312482;26;20452;-69
2024/04/12 02:28:34;;;;;;;6.00;3.80;;;8.30;99.90;;;;;;5329559;26;20476;-69
2024/04/12 02:31:00;;;;;;;6.27;4.17;;;8.30;99.90;;;;;;5312364;26;20441;-69
2024/04/12 02:33:31;;;;;;;5.80;3.60;;;8.20;99.90;;;;;;5323857;26;20456;-69
2024/04/12 02:36:18;;;;;;;7.20;3.60;;;8.20;99.90;;;;;;5312732;26;20555;-69
2024/04/12 02:38:49;;;;;;;5.67;3.77;;;8.10;99.90;;;;;;5321853;26;20504;-69
2024/04/12 02:41:16;;;;;;;6.83;5.80;;;8.10;99.90;;;;;;5312485;26;20543;-69
2024/04/12 02:43:51;;;;;;;6.93;4.70;;;8.10;99.90;;;;;;5332679;26;20463;-69
2024/04/12 02:46:18;;;;;;;9.03;4.70;;;8.10;99.90;;;;;;5346608;26;20792;-69
2024/04/12 02:48:44;;;;;;;8.70;4.57;;;8.20;99.90;;;;;;5349261;26;20487;-69
2024/04/12 02:51:13;;;;;;;4.90;3.93;;;8.20;99.90;;;;;;5346258;26;20511;-69
2024/04/12 02:53:40;;;;;;;4.80;3.10;;;8.10;99.90;;;;;;5312401;26;20908;-70
2024/04/12 02:56:10;;;;;;;4.23;3.43;;;8.10;99.90;;;;;;5312018;26;20824;-69
2024/04/12 02:58:44;;;;;;;4.90;3.00;;;8.10;99.90;;;;;;5315241;26;20453;-69
2024/04/12 03:01:15;;;;;;;7.73;4.40;;;8.10;99.90;;;;;;5315977;26;20544;-69
2024/04/12 03:03:45;;;;;;;4.33;3.87;;;8.10;99.90;;;;;;5315304;26;20521;-69
2024/04/12 03:06:24;;;;;;;7.97;3.87;;;8.10;99.90;;;;;;5336195;26;20519;-69
2024/04/12 03:08:53;;;;;;;9.13;4.63;;;8.10;99.90;;;;;;5319379;26;20645;-70
2024/04/12 03:11:21;;;;;;;5.23;4.10;;;8.10;99.90;;;;;;5318488;26;20527;-69
2024/04/12 03:14:03;;;;;;;4.80;3.57;;;8.10;99.90;;;;;;5315119;26;20480;-70
2024/04/12 03:16:32;;;;;;;7.30;3.63;;;8.10;99.90;;;;;;5315679;26;20529;-69
2024/04/12 03:18:58;;;;;;;4.90;4.20;;;8.10;99.90;;;;;;5342101;26;20576;-69
2024/04/12 03:21:30;;;;;;;6.03;4.13;;;8.10;99.90;;;;;;5314968;26;20468;-69
2024/04/12 03:23:57;;;;;;;6.67;4.30;;;8.20;99.90;;;;;;5311804;26;20580;-69
2024/04/12 03:26:23;;;;;;;11.37;5.60;;;8.20;99.90;;;;;;5310921;26;20445;-69
2024/04/12 03:28:54;;;;;;;5.37;4.87;;;8.20;99.90;;;;;;5311774;26;20468;-69
2024/04/12 03:31:20;;;;;;;5.40;4.07;;;8.30;99.90;;;;;;5313642;26;20555;-69
2024/04/12 03:33:46;;;;;;;6.13;4.60;;;8.20;99.90;;;;;;5311810;26;20578;-69
2024/04/12 03:36:28;;;;;;;6.13;4.60;;;8.20;99.90;;;;;;5316053;26;20476;-69
2024/04/12 03:42:05;;;;;;;8.93;6.13;;;8.20;99.90;;;;;;5343243;26;20487;-69
2024/04/12 03:44:32;;;;;;;4.67;4.27;;;8.20;99.90;;;;;;5330212;26;20558;-69
2024/04/12 03:47:00;;;;;;;4.30;3.83;;;8.20;99.90;;;;;;5329469;26;20459;-69
2024/04/12 03:49:28;;;;;;;9.13;4.67;;;8.20;99.90;;;;;;5326574;26;20526;-69
2024/04/12 03:51:55;;;;;;;4.53;3.97;;;8.20;99.90;;;;;;5322895;26;20578;-69
2024/04/12 03:54:21;;;;;;;9.50;4.20;;;8.10;99.90;;;;;;5311272;26;20828;-69
2024/04/12 03:56:51;;;;;;;8.20;5.00;;;8.00;99.90;;;;;;5330803;26;20981;-69
2024/04/12 03:59:20;;;;;;;8.30;5.37;;;8.00;99.90;;;;;;5327487;26;21121;-69
2024/04/12 04:01:47;;;;;;;6.67;4.57;;;7.90;99.90;;;;;;5337109;26;21013;-69
2024/04/12 04:04:17;;;;;;;5.43;4.67;;;7.90;99.90;;;;;;5322583;26;20650;-69
2024/04/12 04:06:44;;;;;;;7.43;4.33;;;7.90;99.90;;;;;;5339845;26;20504;-70
2024/04/12 04:09:11;;;;;;;11.00;4.73;;;7.90;99.90;;;;;;5338372;26;20443;-70
2024/04/12 04:11:42;;;;;;;13.43;5.30;;;7.80;99.90;;;;;;5336052;26;20511;-69
2024/04/12 04:14:13;;;;;;;5.47;4.67;;;7.80;99.90;;;;;;5336623;26;20830;-69
2024/04/12 04:16:39;;;;;;;5.70;4.73;;;7.80;99.90;;;;;;5321888;26;20843;-69
2024/04/12 04:19:10;;;;;;;7.90;4.27;;;7.70;99.90;;;;;;5316984;26;20524;-69
2024/04/12 04:21:38;;;;;;;6.17;3.87;;;7.70;99.90;;;;;;5322961;26;20513;-69
2024/04/12 04:24:08;;;;;;;4.57;4.17;;;7.60;99.90;;;;;;5352087;26;21067;-69
2024/04/12 04:26:39;;;;;;;7.80;4.97;;;7.60;99.90;;;;;;5372320;26;21277;-69
2024/04/12 04:29:11;;;;;;;8.03;4.60;;;7.60;99.90;;;;;;5314009;26;20565;-69
2024/04/12 04:31:51;;;;;;;5.60;4.60;;;7.60;99.90;;;;;;5331487;26;20471;-69
2024/04/12 04:34:17;;;;;;;8.50;5.80;;;7.50;99.90;;;;;;5315744;26;20465;-69
2024/04/12 04:36:51;;;;;;;6.40;4.60;;;7.50;99.90;;;;;;5310287;26;20894;-69
2024/04/12 04:39:21;;;;;;;7.87;5.30;;;7.50;99.90;;;;;;5313990;26;20548;-69
2024/04/12 04:41:52;;;;;;;8.47;5.00;;;7.50;99.90;;;;;;5313128;26;20476;-69
2024/04/12 04:44:18;;;;;;;5.17;4.63;;;7.50;99.90;;;;;;5336824;26;20539;-69
2024/04/12 04:46:44;;;;;;;4.60;4.10;;;7.50;99.90;;;;;;5333541;26;20501;-69
2024/04/12 04:49:16;;;;;;;8.20;4.00;;;7.50;99.90;;;;;;5320549;26;20584;-69
2024/04/12 04:51:42;;;;;;;7.83;4.33;;;7.60;99.90;;;;;;5321183;26;20608;-69
2024/04/12 04:54:11;;;;;;;9.00;5.40;;;7.60;99.90;;;;;;5351415;26;20475;-69
2024/04/12 04:56:38;;;;;;;5.97;5.20;;;7.60;99.90;;;;;;5324287;26;20528;-69
2024/04/12 04:59:06;;;;;;;8.97;4.73;;;7.70;99.90;;;;;;5332593;26;20457;-69
2024/04/12 05:01:34;;;;;;;10.83;5.37;;;7.80;99.90;;;;;;5315761;26;20461;-69
2024/04/12 05:04:00;;;;;;;6.43;4.60;;;7.80;99.90;;;;;;5336909;26;20452;-69
2024/04/12 05:06:27;;;;;;;6.20;4.53;;;8.00;99.90;;;;;;5319120;26;21137;-69
2024/04/12 05:09:00;;;;;;;5.70;5.10;;;8.00;99.90;;;;;;5350138;26;20569;-69
2024/04/12 05:11:29;;;;;;;8.67;6.33;;;8.10;99.90;;;;;;5324552;26;21026;-69
2024/04/12 05:14:05;;;;;;;11.30;6.20;;;8.20;99.90;;;;;;5324115;26;20516;-69
2024/04/12 05:16:32;;;;;;;8.47;5.57;;;8.20;99.90;;;;;;5339819;26;20567;-69
2024/04/12 05:19:07;;;;;;;8.50;5.17;;;8.30;99.90;;;;;;5317337;26;20459;-69
2024/04/12 05:21:40;;;;;;;10.17;5.13;;;8.40;99.90;;;;;;5321854;26;20516;-70
2024/04/12 05:24:09;;;;;;;15.80;5.07;;;8.50;99.90;;;;;;5330951;26;20524;-69
2024/04/12 05:26:36;;;;;;;13.47;5.83;;;8.60;99.90;;;;;;5322832;26;20572;-69
2024/04/12 05:29:05;;;;;;;10.40;5.30;;;8.70;99.90;;;;;;5315320;26;20520;-69
2024/04/12 05:31:31;;;;;;;10.03;6.40;;;8.70;99.90;;;;;;5344504;26;20527;-69
2024/04/12 05:33:58;;;;;;;11.67;5.30;;;8.70;99.90;;;;;;5315070;26;20512;-69
2024/04/12 05:36:23;;;;;;;10.17;6.13;;;8.70;99.90;;;;;;5340326;26;20225;-70
2024/04/12 05:38:49;;;;;;;8.47;5.30;;;8.80;99.90;;;;;;5326312;26;20580;-69
2024/04/12 05:41:15;;;;;;;8.83;6.20;;;8.80;99.90;;;;;;5315134;26;20222;-69
2024/04/12 05:43:41;;;;;;;6.57;5.40;;;8.80;99.90;;;;;;5328519;26;20327;-70
2024/04/12 05:46:07;;;;;;;12.70;5.70;;;9.00;99.90;;;;;;5341319;26;20488;-69
2024/04/12 05:48:36;;;;;;;9.43;5.77;;;9.10;99.90;;;;;;5341671;26;20242;-70
2024/04/12 05:51:02;;;;;;;6.10;5.30;;;9.30;99.90;;;;;;5321191;26;20268;-70
2024/04/12 05:53:31;;;;;;;8.97;5.80;;;9.50;99.90;;;;;;5312700;26;20457;-70
2024/04/12 05:58:41;;;;;;;8.57;5.20;;;10.30;99.90;;;;;;5381734;26;20562;-70
2024/04/12 06:01:07;;;;;;;10.20;5.53;;;10.60;99.90;;;;;;5329892;26;20532;-70
2024/04/12 06:03:45;;;;;;;8.30;6.57;;;10.70;99.90;;;;;;5347152;26;20342;-70
2024/04/12 06:06:13;;;;;;;8.70;5.97;;;10.90;99.90;;;;;;5342977;26;21038;-70
2024/04/12 06:08:41;;;;;;;7.20;6.60;;;11.00;99.90;;;;;;5329535;26;20465;-70
2024/04/12 06:11:09;;;;;;;8.50;5.90;;;11.10;99.90;;;;;;5332373;26;20233;-71
2024/04/12 06:13:38;;;;;;;6.50;5.43;;;11.20;99.90;;;;;;5345142;26;20471;-70
2024/04/12 06:16:04;;;;;;;7.70;5.20;;;11.20;99.90;;;;;;5339884;26;20460;-70
2024/04/12 06:18:29;;;;;;;8.03;5.73;;;11.20;99.90;;;;;;5345780;26;20439;-70
2024/04/12 06:20:58;;;;;;;8.17;7.13;;;11.30;99.90;;;;;;5336413;26;20525;-70
2024/04/12 06:23:23;;;;;;;7.20;5.80;;;11.30;99.90;;;;;;5349249;26;20724;-70
2024/04/12 06:25:50;;;;;;;8.03;6.30;;;11.30;99.90;;;;;;5346607;26;20561;-70
2024/04/12 06:28:19;;;;;;;8.03;5.90;;;11.40;99.90;;;;;;5334118;26;21074;-70
2024/04/12 06:30:50;;;;;;;8.20;5.47;;;11.50;99.90;;;;;;5338565;26;20460;-70
2024/04/12 06:33:22;;;;;;;6.70;6.00;;;11.60;99.90;;;;;;5314622;26;20494;-70
2024/04/12 06:35:52;;;;;;;13.43;8.40;;;11.80;99.90;;;;;;5318454;26;20916;-70
2024/04/12 06:38:25;;;;;;;8.20;6.47;;;11.80;99.90;;;;;;5336007;26;21101;-70
2024/04/12 06:41:00;;;;;;;11.70;7.90;;;11.90;99.90;;;;;;5312157;26;20468;-70
2024/04/12 06:43:26;;;;;;;8.20;7.00;;;12.10;99.90;;;;;;5339325;26;20559;-69
2024/04/12 06:46:00;;;;;;;13.93;7.23;;;12.30;99.90;;;;;;5334454;26;20472;-69
2024/04/12 06:48:26;;;;;;;13.03;7.13;;;12.50;99.90;;;;;;5339793;26;20472;-68
2024/04/12 06:50:56;;;;;;;12.13;6.83;;;12.90;99.90;;;;;;5342280;26;20551;-69
2024/04/12 06:53:23;;;;;;;13.70;5.87;;;13.20;99.90;;;;;;5340528;26;21049;-70
2024/04/12 06:55:54;;;;;;;9.63;7.73;;;13.60;99.90;;;;;;5353634;26;20527;-71
2024/04/12 06:58:21;;;;;;;9.80;6.00;;;13.90;99.90;;;;;;5329407;26;20463;-70
2024/04/12 07:00:59;;;;;;;12.07;6.37;;;14.00;99.90;;;;;;5332005;26;20457;-70
2024/04/12 07:03:25;;;;;;;7.63;5.40;;;14.30;99.90;;;;;;5316513;26;20468;-71
2024/04/12 07:05:53;;;;;;;11.30;5.77;;;14.50;99.90;;;;;;5340185;26;20513;-69
2024/04/12 07:08:21;;;;;;;6.37;5.50;;;14.80;99.90;;;;;;5370051;26;20229;-70
2024/04/12 07:10:49;;;;;;;9.80;5.90;;;15.00;99.90;;;;;;5345586;26;20546;-70
2024/04/12 07:13:26;;;;;;;8.63;5.80;;;15.20;99.90;;;;;;5346053;26;20467;-69
2024/04/12 07:15:55;;;;;;;10.03;6.20;;;15.40;99.90;;;;;;5324489;26;20540;-69
2024/04/12 07:18:22;;;;;;;8.90;5.97;;;15.70;99.90;;;;;;5312908;26;20842;-68
2024/04/12 07:20:48;;;;;;;10.20;6.60;;;15.90;99.90;;;;;;5311180;26;20509;-69
2024/04/12 07:23:15;;;;;;;6.53;5.33;;;16.20;99.90;;;;;;5331458;26;20460;-69
2024/04/12 07:25:47;;;;;;;12.83;6.10;;;16.40;99.90;;;;;;5331299;26;20525;-69
2024/04/12 07:28:14;;;;;;;6.80;4.97;;;16.50;99.90;;;;;;5333486;26;20867;-68
2024/04/12 07:30:47;;;;;;;4.80;4.37;;;16.70;99.90;;;;;;5318892;26;20518;-68
2024/04/12 07:33:13;;;;;;;5.87;4.70;;;17.00;99.90;;;;;;5329069;26;20508;-68
2024/04/12 07:35:39;;;;;;;11.40;4.97;;;17.20;99.90;;;;;;5325296;26;20567;-69
2024/04/12 07:38:07;;;;;;;6.83;5.37;;;17.50;99.90;;;;;;5317396;26;20457;-68
2024/04/12 07:40:34;;;;;;;6.10;5.50;;;17.60;99.00;;;;;;5310878;26;20453;-68
2024/04/12 07:43:08;;;;;;;7.60;5.53;;;17.60;98.80;;;;;;5323912;26;20512;-68
2024/04/12 07:45:37;;;;;;;10.83;5.37;;;17.90;97.50;;;;;;5339076;26;20851;-69
2024/04/12 07:50:48;;;;;;;8.03;5.73;;;18.40;95.10;;;;;;5312756;26;20580;-69
2024/04/12 07:53:23;;;;;;;15.07;5.77;;;18.60;94.50;;;;;;5353814;22;20503;-67
2024/04/12 07:55:58;;;;;;;7.40;5.93;;;18.80;93.30;;;;;;5349756;26;20459;-69
2024/04/12 07:58:27;;;;;;;5.83;5.13;;;19.00;91.80;;;;;;5343967;26;20575;-68
2024/04/12 08:01:09;;;;;;;10.77;5.43;;;19.10;92.60;;;;;;5343723;26;20584;-68
2024/04/12 08:03:38;;;;;;;6.17;5.57;;;19.10;91.60;;;;;;5317969;26;20988;-67
2024/04/12 08:06:04;;;;;;;6.20;5.57;;;19.10;91.70;;;;;;5348124;26;20449;-68
2024/04/12 08:08:31;;;;;;;5.80;5.20;;;18.90;91.60;;;;;;5346054;26;21118;-67
2024/04/12 08:11:10;;;;;;;6.10;4.90;;;18.60;91.80;;;;;;5318305;26;20222;-68
2024/04/12 08:13:50;;;;;;;7.87;5.70;;;18.60;92.10;;;;;;5320281;26;20519;-67
2024/04/12 08:16:23;;;;;;;8.90;6.57;;;18.30;92.30;;;;;;5328765;26;20563;-68
2024/04/12 08:18:54;;;;;;;10.73;5.13;;;18.30;92.20;;;;;;5311037;26;20993;-67
2024/04/12 08:21:20;;;;;;;8.67;7.03;;;18.60;92.40;;;;;;5336500;26;20473;-67
2024/04/12 08:23:45;;;;;;;7.67;7.00;;;18.80;92.10;;;;;;5352496;26;21001;-67
2024/04/12 08:26:11;;;;;;;8.37;6.10;;;19.00;92.30;;;;;;5325362;26;20307;-67
2024/04/12 08:28:40;;;;;;;8.23;6.70;;;19.30;91.70;;;;;;5342993;26;20232;-67
2024/04/12 08:31:10;;;;;;;7.90;7.10;;;19.20;90.70;;;;;;5333741;26;20451;-67
2024/04/12 08:33:40;;;;;;;12.33;6.50;;;19.30;89.90;;;;;;5323567;26;20477;-67
2024/04/12 08:36:13;;;;;;;8.50;6.00;;;19.40;90.10;;;;;;5324247;26;20451;-67
2024/04/12 08:38:54;;;;;;;9.70;6.70;;;19.30;90.20;;;;;;5315269;26;20575;-67
2024/04/12 08:41:23;;;;;;;6.73;6.13;;;19.30;89.00;;;;;;5322623;26;20504;-67
2024/04/12 08:43:54;;;;;;;8.30;6.53;;;19.50;89.10;;;;;;5309996;27;20588;-67
2024/04/12 08:46:25;;;;;;;8.27;7.40;;;19.80;87.10;;;;;;5322420;26;20456;-68
2024/04/12 08:48:51;;;;;;;11.53;7.03;;;20.00;86.10;;;;;;5322357;26;20978;-68
2024/04/12 08:51:22;;;;;;;11.87;7.73;;;20.20;85.40;;;;;;5325686;26;20452;-66
2024/04/12 08:53:57;;;;;;;8.30;6.83;;;20.50;85.10;;;;;;5322891;26;20461;-68
2024/04/12 08:56:28;;;;;;;11.00;6.23;;;20.50;81.90;;;;;;5333066;26;20475;-68
2024/04/12 08:59:05;;;;;;;7.60;6.90;;;20.50;81.70;;;;;;5323618;26;20473;-67
2024/04/12 09:01:31;;;;;;;9.40;6.20;;;20.90;80.70;;;;;;5318584;26;20480;-67
2024/04/12 09:04:06;;;;;;;7.50;6.80;;;21.10;79.60;;;;;;5335687;26;21120;-66
2024/04/12 09:06:35;;;;;;;9.13;5.90;;;21.40;77.60;;;;;;5324268;26;20575;-70
2024/04/12 09:09:03;;;;;;;8.00;6.07;;;21.90;76.20;;;;;;5341770;26;20888;-70
2024/04/12 09:11:31;;;;;;;5.87;5.30;;;22.30;75.40;;;;;;5325042;26;20587;-70
2024/04/12 09:14:08;;;;;;;7.00;6.33;;;22.90;72.90;;;;;;5345269;26;20578;-70
2024/04/12 09:16:43;;;;;;;10.63;6.40;;;23.10;68.20;;;;;;5349782;26;20512;-70
2024/04/12 09:19:13;;;;;;;6.63;6.03;;;23.40;66.10;;;;;;5357821;26;20446;-70
2024/04/12 09:21:47;;;;;;;6.73;5.80;;;23.60;63.80;;;;;;5334187;26;20983;-69
2024/04/12 09:24:21;;;;;;;7.50;6.27;;;24.00;60.90;;;;;;5319030;26;20458;-69
2024/04/12 09:26:58;;;;;;;6.27;5.63;;;24.50;58.90;;;;;;5311998;27;20449;-73
2024/04/12 09:29:27;;;;;;;12.40;5.80;;;24.50;56.00;;;;;;5339815;26;20566;-71
2024/04/12 09:34:46;;;;;;;9.20;6.00;;;25.40;52.90;;;;;;5334317;26;20537;-70
2024/04/12 09:45:21;;;;;;;9.20;5.90;;;27.20;42.10;;;;;;5344285;26;20519;-70
2024/04/12 10:37:47;;;;;;;11.30;6.70;;;33.40;23.30;;;;;;5325695;26;20544;-70
2024/04/12 10:40:13;;;;;;;10.53;6.40;;;33.30;23.30;;;;;;5375746;26;20524;-70
2024/04/12 10:42:42;;;;;;;8.07;7.27;;;32.40;22.50;;;;;;5355964;26;20468;-72
2024/04/12 10:45:08;;;;;;;8.60;7.80;;;33.20;21.90;;;;;;5320979;26;20539;-68
2024/04/12 10:47:37;;;;;;;7.80;7.07;;;32.40;22.00;;;;;;5340961;26;20480;-72
2024/04/12 10:50:04;;;;;;;7.60;6.83;;;33.20;21.70;;;;;;5343920;26;20865;-72
2024/04/12 10:52:31;;;;;;;8.07;7.20;;;33.50;21.10;;;;;;5332347;26;20528;-72
2024/04/12 10:55:01;;;;;;;8.57;7.53;;;33.90;20.80;;;;;;5330133;26;20539;-74
2024/04/12 10:57:30;;;;;;;7.77;7.17;;;33.40;20.20;;;;;;5325980;26;20473;-74
2024/04/12 11:00:00;;;;;;;8.57;7.60;;;30.90;21.80;;;;;;5328822;26;20549;-73
2024/04/12 11:02:27;;;;;;;8.83;7.30;;;30.20;22.20;;;;;;5329380;26;20519;-69
2024/04/12 11:05:06;;;;;;;7.53;6.93;;;30.70;22.50;;;;;;5315426;26;20520;-69
2024/04/12 11:07:32;;;;;;;8.40;7.60;;;31.50;21.70;;;;;;5316069;26;20457;-66
2024/04/12 11:09:57;;;;;;;6.40;5.90;;;31.60;21.00;;;;;;5343181;26;20567;-68
2024/04/12 11:12:30;;;;;;;7.83;7.13;;;32.00;21.40;;;;;;5345276;26;20586;-67
2024/04/12 11:31:28;;;;;;;6.37;5.33;;;34.40;19.80;;;;;;5311438;27;20924;-68
2024/04/12 11:33:55;;;;;;;7.63;6.20;;;36.10;18.80;;;;;;5325662;26;20515;-67
2024/04/12 11:36:21;;;;;;;7.40;6.80;;;36.10;17.80;;;;;;5345732;26;20543;-68
2024/04/12 11:38:47;;;;;;;7.93;6.77;;;35.90;16.90;;;;;;5345243;26;20443;-68
2024/04/12 11:41:16;;;;;;;7.60;6.90;;;34.90;17.60;;;;;;5328768;26;20513;-68
2024/04/12 11:43:45;;;;;;;9.33;6.53;;;35.50;16.90;;;;;;5316646;26;20878;-68
2024/04/12 11:46:14;;;;;;;7.50;6.80;;;36.60;16.80;;;;;;5333482;26;20885;-71
2024/04/12 11:48:42;;;;;;;7.33;6.57;;;37.40;16.00;;;;;;5310529;27;21026;-68
2024/04/12 11:51:09;;;;;;;7.73;7.13;;;38.00;15.20;;;;;;5325799;26;20455;-68
2024/04/12 11:53:38;;;;;;;7.60;5.87;;;37.60;14.80;;;;;;5345680;26;20502;-68
2024/04/12 11:56:04;;;;;;;9.13;6.50;;;36.60;15.40;;;;;;5345982;26;20503;-69
2024/04/12 11:58:30;;;;;;;8.93;7.00;;;36.70;15.20;;;;;;5344841;26;20436;-69
2024/04/12 12:00:58;;;;;;;9.63;6.07;;;37.70;14.80;;;;;;5344694;26;20805;-69
2024/04/12 12:03:25;;;;;;;7.73;6.93;;;38.40;14.30;;;;;;5345476;26;20229;-69
2024/04/12 12:05:53;;;;;;;8.13;6.20;;;38.50;13.90;;;;;;5345745;26;20463;-67
2024/04/12 12:08:31;;;;;;;8.77;7.13;;;38.30;14.20;;;;;;5344375;26;20443;-68
2024/04/12 12:10:57;;;;;;;6.93;6.30;;;39.00;13.50;;;;;;5335631;26;20521;-67
2024/04/12 12:13:23;;;;;;;7.60;7.00;;;38.90;12.80;;;;;;5310950;26;20452;-68
2024/04/12 12:15:51;;;;;;;8.97;8.07;;;38.80;12.80;;;;;;5325471;26;20242;-68
2024/04/12 12:18:17;;;;;;;9.10;8.20;;;39.10;12.80;;;;;;5344439;26;20213;-69
2024/04/12 12:20:46;;;;;;;8.30;7.10;;;39.50;12.20;;;;;;5344907;26;21043;-67
2024/04/12 12:23:12;;;;;;;6.90;6.37;;;40.30;11.80;;;;;;5345006;26;20841;-67
2024/04/12 12:25:38;;;;;;;7.40;6.63;;;39.60;11.40;;;;;;5344131;26;20468;-66
2024/04/12 12:28:04;;;;;;;7.90;7.07;;;39.30;12.00;;;;;;5344379;26;20435;-68
2024/04/12 12:30:33;;;;;;;6.63;5.80;;;39.20;11.60;;;;;;5344018;26;21071;-66
2024/04/12 12:32:59;;;;;;;8.37;6.10;;;39.60;11.90;;;;;;5345042;26;20225;-66
2024/04/12 12:35:24;;;;;;;9.60;5.70;;;40.90;11.10;;;;;;5345041;26;20440;-66
2024/04/12 12:37:51;;;;;;;7.57;6.83;;;41.50;10.60;;;;;;5344456;26;20511;-66
2024/04/12 12:40:18;;;;;;;7.13;6.40;;;41.40;10.20;;;;;;5345079;26;20243;-66
2024/04/12 12:42:46;;;;;;;8.80;6.33;;;41.20;10.20;;;;;;5312035;26;20552;-66
2024/04/12 12:45:13;;;;;;;7.17;6.00;;;42.40;10.60;;;;;;5316598;26;20509;-66
2024/04/12 12:47:39;;;;;;;7.23;6.33;;;43.30;10.60;;;;;;5344220;26;20508;-65
2024/04/12 12:50:04;;;;;;;6.87;6.27;;;43.80;9.80;;;;;;5344735;26;20866;-65
2024/04/12 12:52:32;;;;;;;6.90;6.20;;;44.70;9.00;;;;;;5344629;26;20263;-65
2024/04/12 12:55:00;;;;;;;7.57;6.93;;;45.10;8.70;;;;;;5326342;26;20229;-63
2024/04/12 12:57:25;;;;;;;8.10;6.67;;;45.00;8.00;;;;;;5321355;26;20498;-63
2024/04/12 12:59:54;;;;;;;15.90;7.70;;;45.10;7.50;;;;;;5344551;26;20435;-63
2024/04/12 13:02:19;;;;;;;8.10;7.27;;;45.20;7.40;;;;;;5343010;26;20283;-63
2024/04/12 13:04:49;;;;;;;8.00;7.23;;;44.80;7.20;;;;;;5344257;26;20502;-64
2024/04/12 13:07:16;;;;;;;7.27;6.57;;;43.80;7.60;;;;;;5341159;26;20229;-65
2024/04/12 13:09:42;;;;;;;9.40;6.80;;;44.20;7.50;;;;;;5344672;26;20507;-64
2024/04/12 13:12:11;;;;;;;8.60;7.77;;;44.70;7.50;;;;;;5344488;26;20536;-64
2024/04/12 13:14:39;;;;;;;10.50;8.87;;;44.10;7.30;;;;;;5344445;26;20436;-65
2024/04/12 13:17:12;;;;;;;10.57;9.67;;;42.60;7.90;;;;;;5369937;26;20451;-65
2024/04/12 13:19:42;;;;;;;9.47;8.57;;;42.40;7.70;;;;;;5379261;26;21063;-66
2024/04/12 13:22:14;;;;;;;10.43;7.83;;;41.80;7.70;;;;;;5336298;26;20460;-65
2024/04/12 13:24:43;;;;;;;12.90;9.00;;;40.70;8.30;;;;;;5335345;26;20468;-65
2024/04/12 13:27:09;;;;;;;13.60;9.30;;;39.00;9.20;;;;;;5342480;26;20464;-65
2024/04/12 13:29:36;;;;;;;15.70;9.50;;;39.20;9.20;;;;;;5343532;26;20939;-65
2024/04/12 13:32:03;;;;;;;9.80;8.73;;;38.60;9.20;;;;;;5339999;26;20662;-66
2024/04/12 13:34:32;;;;;;;8.73;7.90;;;38.30;9.70;;;;;;5342023;26;20455;-65
2024/04/12 13:36:58;;;;;;;11.30;8.67;;;37.00;9.80;;;;;;5343361;26;20459;-65
2024/04/12 13:39:24;;;;;;;11.57;8.93;;;35.80;10.80;;;;;;5347193;26;21038;-65
2024/04/12 13:41:56;;;;;;;13.47;9.70;;;34.40;11.90;;;;;;5347487;26;20440;-66
2024/04/12 13:50:54;;;;;;;9.13;8.20;;;33.60;12.10;;;;;;5380205;26;20458;-65
2024/04/12 13:52:44;;;;;;;6.47;5.83;;;31.30;14.20;;;;;;5347636;26;20550;-65
2024/04/12 13:55:11;;;;;;;7.07;5.43;;;31.30;14.40;;;;;;5345083;26;20455;-65
2024/04/12 13:57:40;;;;;;;10.80;5.37;;;30.30;14.80;;;;;;5312051;27;20210;-65
2024/04/12 14:00:10;;;;;;;6.90;5.90;;;29.30;15.30;;;;;;5312828;27;20787;-65
2024/04/12 14:02:37;;;;;;;9.50;6.20;;;28.70;16.00;;;;;;5345703;26;21039;-65
2024/04/12 14:05:03;;;;;;;8.83;5.73;;;27.80;16.70;;;;;;5347416;26;20460;-65
2024/04/12 14:07:33;;;;;;;7.63;5.33;;;27.40;17.50;;;;;;5311571;26;21125;-66
2024/04/12 14:10:04;;;;;;;8.73;5.30;;;26.90;17.80;;;;;;5312779;26;20214;-65
2024/04/12 14:12:30;;;;;;;5.03;4.37;;;26.50;18.40;;;;;;5312589;27;20511;-65
2024/04/12 14:14:55;;;;;;;5.40;4.23;;;26.30;18.90;;;;;;5334231;26;20452;-65
2024/04/12 14:17:22;;;;;;;6.87;4.40;;;25.90;18.80;;;;;;5314012;26;20578;-65
2024/04/12 14:19:48;;;;;;;5.53;4.87;;;25.50;19.30;;;;;;5312327;26;20596;-65
2024/04/12 14:22:14;;;;;;;6.90;4.97;;;25.40;19.50;;;;;;5312459;26;20476;-65
2024/04/12 14:25:02;;;;;;;7.90;4.63;;;25.00;20.00;;;;;;5323991;26;20229;-65
2024/04/12 14:27:28;;;;;;;5.07;4.60;;;24.90;20.40;;;;;;5313887;26;20293;-65
2024/04/12 14:29:54;;;;;;;8.63;4.30;;;25.00;20.40;;;;;;5312230;27;20441;-65
2024/04/12 14:32:22;;;;;;;10.17;5.13;;;25.10;20.50;;;;;;5340116;26;20579;-67